Latest Weather Observations for Bathurst Airport

IDN60801

Issued at 8:05 am EDT Sunday 23 November 2014 (issued every 30 minutes, with the page automatically refreshed every 10 minutes)

About weather observations | Map of weather stations | Latest weather observations for NSW | Other Formats
Station Details ID: 063291 Name: BATHURST AIRPORT AWS Lat: -33.41 Lon: 149.65 Height: 744.5 m
Data from the previous 72 hours. | See also: Recent months for locations in New South Wales
Date/Time
EDT
Temp
°C
App
Temp
°C
Dew
Point
Rel
Hum
%
Delta-T
°C
Wind Press
QNH
hPa
Press
MSL
hPa
Rain
since 9 am
mm
Dir
 
Spd
km/h
Gust
km/h
Spd
kts
Gust
kts
23/08:00am 18.7 17.8 9.2 54 5.2 ESE 4 7 2 4 1016.3 1013.9 0.0
23/07:30am 18.0 17.8 9.1 56 4.8 SSE 0 4 0 2 1016.2 1013.8 0.0
23/07:00am 16.7 15.2 9.1 61 4.1 SSW 7 9 4 5 1015.8 1013.4 0.0
23/06:30am 15.1 13.9 9.5 69 3.0 WSW 6 9 3 5 1015.5 1013.1 0.0
23/06:00am 14.3 13.6 8.5 68 3.0 ENE 2 7 1 4 1015.2 1012.8 0.0
23/05:30am 13.7 12.9 8.1 69 2.9 E 2 7 1 4 1015.4 1013.0 0.0
23/05:00am 14.4 13.2 8.1 66 3.3 ESE 4 7 2 4 1015.2 1012.8 0.0
23/04:30am 14.1 12.0 8.1 67 3.1 SW 9 11 5 6 1015.1 1012.7 0.0
23/04:00am 14.7 13.0 7.7 63 3.6 SE 6 7 3 4 1014.4 1012.0 0.0
23/03:30am 15.1 13.3 7.9 62 3.7 S 7 11 4 6 1014.7 1012.2 0.0
23/03:00am 15.9 14.2 8.2 60 4.0 S 7 11 4 6 1014.4 1012.0 0.0
23/02:30am 15.7 14.4 7.7 59 4.2 S 4 7 2 4 1014.8 1012.3 0.0
23/02:00am 16.2 15.7 7.7 57 4.4 CALM 0 6 0 3 1015.2 1012.8 0.0
23/01:30am 18.7 16.0 7.5 48 5.9 SSE 11 13 6 7 1015.2 1012.8 0.0
23/01:00am 18.7 16.0 7.5 48 5.9 SSE 11 13 6 7 1015.4 1013.0 0.0
23/12:30am 18.8 17.0 7.9 49 5.8 S 7 9 4 5 1015.5 1013.1 0.0
23/12:00am 16.6 14.2 7.0 53 4.9 NNE 9 9 5 5 1015.7 1013.3 0.0
 
Date/Time
EDT
Temp
°C
App
Temp
°C
Dew
Point
Rel
Hum
%
Delta-T
°C
Wind Press
QNH
hPa
Press
MSL
hPa
Rain
since 9 am
mm
Dir
 
Spd
km/h
Gust
km/h
Spd
kts
Gust
kts
22/11:30pm 19.4 17.4 7.2 45 6.4 ENE 7 9 4 5 1016.1 1013.7 0.0
22/11:00pm 18.9 16.5 7.0 46 6.2 NE 9 11 5 6 1016.1 1013.7 0.0
22/10:30pm 20.8 18.0 7.1 41 7.3 ENE 11 11 6 6 1016.2 1013.8 0.0
22/10:00pm 21.4 18.2 6.9 39 7.7 E 13 15 7 8 1016.1 1013.7 0.0
22/09:30pm 22.7 20.2 6.5 35 8.6 E 9 13 5 7 1016.1 1013.7 0.0
22/09:00pm 22.9 20.4 6.6 35 8.7 ENE 9 11 5 6 1015.7 1013.3 0.0
22/08:30pm 22.9 21.4 6.6 35 8.7 SW 4 9 2 5 1015.4 1013.0 0.0
22/08:00pm 24.8 21.9 6.5 31 9.8 SSW 11 13 6 7 1015.0 1012.6 0.0
22/07:30pm 27.9 24.5 6.1 25 11.8 SW 13 17 7 9 1014.6 1012.1 0.0
22/07:00pm 29.3 24.8 6.0 23 12.7 SW 19 30 10 16 1014.0 1011.6 0.0
22/06:30pm 29.6 23.7 5.6 22 13.0 SW 26 32 14 17 1013.9 1011.5 0.0
22/06:00pm 31.9 26.1 4.6 18 14.8 W 24 33 13 18 1013.5 1011.0 0.0
22/05:30pm 33.0 26.7 5.5 18 15.2 W 28 37 15 20 1013.4 1010.9 0.0
22/05:22pm 32.6 25.8 5.2 18 15.0 NW 30 48 16 26 1013.2 1010.7 0.0
22/05:00pm 32.3 26.2 5.0 18 14.9 WNW 26 39 14 21 1013.4 1010.9 0.0
22/04:30pm 32.2 26.8 6.4 20 14.4 WNW 24 32 13 17 1013.6 1011.1 0.0
22/04:00pm 32.0 27.6 7.6 22 13.8 WNW 20 30 11 16 1013.6 1011.1 0.0
22/03:30pm 32.6 26.9 6.7 20 14.5 NW 26 37 14 20 1013.7 1011.3 0.0
22/03:00pm 33.6 27.7 7.5 20 14.9 NW 28 44 15 24 1014.0 1011.6 0.0
22/02:57pm 33.6 27.5 6.8 19 15.1 NW 28 44 15 24 1013.9 1011.5 0.0
22/02:30pm 34.1 30.2 9.4 22 14.5 NNW 20 26 11 14 1014.0 1011.6 0.0
22/02:00pm 33.1 29.8 7.9 21 14.4 NNW 15 30 8 16 1014.4 1012.0 0.0
22/01:30pm 31.5 27.6 8.5 24 13.2 W 19 22 10 12 1014.7 1012.2 0.0
22/01:00pm 31.8 27.9 9.3 25 13.1 N 20 33 11 18 1015.1 1012.7 0.0
22/12:30pm 30.5 26.9 10.5 29 11.8 NW 20 33 11 18 1015.6 1013.2 0.0
22/12:00pm 30.6 27.0 10.0 28 12.1 NNW 19 28 10 15 1015.9 1013.5 0.0
22/11:30am 29.2 26.2 9.3 29 11.4 NW 15 28 8 15 1016.1 1013.7 0.0
22/11:00am 28.7 26.1 10.8 33 10.5 NNW 15 24 8 13 1016.2 1013.8 0.0
22/10:30am 27.2 25.4 10.8 36 9.6 N 11 19 6 10 1016.3 1013.9 0.0
22/10:00am 25.3 24.7 12.2 44 7.8 NNW 7 17 4 9 1016.7 1014.3 0.0
22/09:30am 23.0 22.1 11.4 48 6.7 NNE 7 11 4 6 1016.9 1014.5 0.0
22/09:00am 21.7 21.6 12.0 54 5.6 S 4 9 2 5 1017.2 1014.9 0.0
22/08:30am 19.7 18.8 12.5 63 4.2 WSW 9 13 5 7 1016.9 1014.5 0.0
22/08:00am 18.5 18.5 12.3 67 3.6 WSW 4 7 2 4 1016.5 1014.1 0.0
22/07:30am 15.9 15.3 12.3 79 2.0 SSW 7 7 4 4 1016.1 1013.7 0.0
22/07:00am 14.3 13.7 11.6 84 1.5 WSW 6 7 3 4 1016.2 1013.8 0.0
22/06:30am 12.7 13.1 11.3 91 0.8 CALM 0 0 0 0 1015.8 1013.4 0.0
22/06:00am 12.8 13.3 11.7 93 0.6 CALM 0 0 0 0 1015.5 1013.1 0.0
22/05:30am 12.2 11.7 10.6 90 0.9 SSE 4 7 2 4 1015.4 1013.0 0.0
22/05:00am 11.8 12.0 10.7 93 0.6 CALM 0 6 0 3 1015.1 1012.7 0.0
22/04:30am 12.3 12.0 10.2 87 1.1 E 2 7 1 4 1014.7 1012.2 0.0
22/04:00am 13.2 12.2 10.4 83 1.5 E 6 9 3 5 1014.3 1011.9 0.0
22/03:30am 14.3 14.4 10.3 77 2.2 CALM 0 0 0 0 1014.4 1012.0 0.0
22/03:00am 13.0 12.1 9.3 78 2.0 E 4 7 2 4 1014.7 1012.2 0.0
22/02:30am 14.2 14.1 9.6 74 2.5 CALM 0 0 0 0 1014.8 1012.3 0.0
22/02:00am 15.0 13.8 9.4 69 3.0 SSE 6 11 3 6 1014.9 1012.5 0.0
22/01:30am 15.5 13.7 9.4 67 3.3 ENE 9 11 5 6 1015.1 1012.7 0.0
22/01:00am 17.5 16.2 10.1 62 4.1 ENE 7 9 4 5 1015.3 1012.9 0.0
22/12:30am 18.4 16.8 10.3 59 4.5 ESE 9 9 5 5 1015.5 1013.1 0.0
22/12:00am 17.1 16.4 10.2 64 3.8 N 4 7 2 4 1015.5 1013.1 0.0
 
Date/Time
EDT
Temp
°C
App
Temp
°C
Dew
Point
Rel
Hum
%
Delta-T
°C
Wind Press
QNH
hPa
Press
MSL
hPa
Rain
since 9 am
mm
Dir
 
Spd
km/h
Gust
km/h
Spd
kts
Gust
kts
21/11:30pm 18.0 15.6 10.1 60 4.4 SW 13 13 7 7 1015.5 1013.1 0.0
21/11:00pm 18.9 16.8 9.7 55 5.1 SW 11 13 6 7 1015.4 1013.0 0.0
21/10:30pm 20.7 19.4 9.9 50 6.0 SW 7 9 4 5 1015.3 1012.9 0.0
21/10:00pm 20.8 20.6 9.1 47 6.4 CALM 0 6 0 3 1015.2 1012.8 0.0
21/09:30pm 22.6 20.8 9.4 43 7.4 S 9 9 5 5 1014.9 1012.5 0.0
21/09:00pm 23.1 21.2 9.1 41 7.8 SSW 9 11 5 6 1014.6 1012.1 0.0
21/08:30pm 23.4 21.4 8.7 39 8.1 S 9 11 5 6 1014.2 1011.8 0.0
21/08:00pm 23.6 21.1 8.1 37 8.5 SW 11 15 6 8 1013.9 1011.5 0.0
21/07:30pm 25.6 22.2 7.7 32 9.9 WSW 15 19 8 10 1013.5 1011.0 0.0
21/07:00pm 27.2 23.0 8.1 30 10.7 WSW 20 28 11 15 1012.9 1010.5 0.0
21/06:30pm 28.0 22.8 7.3 27 11.5 WSW 24 32 13 17 1012.4 1009.9 0.0
21/06:00pm 29.1 23.6 7.6 26 12.0 WSW 26 35 14 19 1012.1 1009.6 0.0
21/05:30pm 29.5 24.5 8.0 26 12.1 WSW 24 37 13 20 1011.8 1009.3 0.0
21/05:00pm 30.1 23.9 7.9 25 12.6 WSW 30 41 16 22 1011.4 1009.0 0.0
21/04:44pm 30.5 24.6 7.7 24 12.9 WSW 28 46 15 25 1011.3 1008.9 0.0
21/04:30pm 28.8 24.0 7.4 26 11.9 WSW 22 32 12 17 1011.2 1008.7 0.0
21/04:00pm 29.3 23.2 6.7 24 12.5 WSW 28 39 15 21 1011.2 1008.7 0.0
21/03:30pm 31.1 25.1 6.9 22 13.5 WNW 28 44 15 24 1011.2 1008.7 0.0
21/03:08pm 31.6 25.0 5.9 20 14.2 WNW 30 54 16 29 1011.1 1008.6 0.0
21/03:00pm 31.7 24.5 6.0 20 14.2 W 33 43 18 23 1011.2 1008.7 0.0
21/02:30pm 31.4 24.0 5.0 19 14.3 W 33 46 18 25 1011.3 1008.9 0.0
21/02:00pm 31.8 24.1 5.3 19 14.5 W 35 48 19 26 1011.3 1008.9 0.0
21/01:30pm 32.0 25.3 3.9 17 15.0 W 28 44 15 24 1011.3 1008.9 0.0
21/01:00pm 31.7 23.7 3.7 17 14.9 NW 35 44 19 24 1011.6 1009.2 0.0
21/12:52pm 31.8 24.2 2.9 16 15.2 W 32 50 17 27 1011.8 1009.3 0.0
21/12:30pm 31.3 23.6 3.4 17 14.7 W 33 44 18 24 1011.8 1009.3 0.0
21/12:00pm 30.9 22.8 3.0 17 14.6 W 35 50 19 27 1012.1 1009.6 0.0
21/11:56am 31.1 22.6 3.2 17 14.7 W 37 44 20 24 1012.1 1009.6 0.0
21/11:30am 30.9 22.9 3.8 18 14.4 NNW 35 46 19 25 1012.1 1009.6 0.0
21/11:00am 29.7 23.0 3.6 19 13.7 WNW 28 39 15 21 1012.4 1009.9 0.0
21/10:30am 29.1 23.0 4.6 21 13.0 WNW 26 35 14 19 1012.5 1010.1 0.0
21/10:00am 28.5 21.9 4.1 21 12.8 W 28 33 15 18 1012.5 1010.1 0.0
21/09:30am 28.3 21.5 3.2 20 13.0 NW 28 39 15 21 1012.5 1010.1 0.0
21/09:00am 27.2 20.8 3.0 21 12.4 N 26 33 14 18 1012.3 1009.8 0.0
21/08:30am 25.5 20.5 4.6 26 10.9 N 20 28 11 15 1012.3 1009.8 0.0
21/08:00am 23.4 19.6 5.8 32 9.3 N 15 20 8 11 1012.1 1009.6 0.0
21/07:30am 20.1 16.9 5.0 37 7.7 NNE 11 13 6 7 1011.8 1009.3 0.0
21/07:00am 19.5 16.0 5.6 40 7.1 NNE 13 15 7 8 1011.4 1009.0 0.0
21/06:30am 17.6 14.5 5.5 45 6.1 NE 11 13 6 7 1011.1 1008.6 0.0
21/06:00am 16.1 12.5 4.8 47 5.6 NE 13 17 7 9 1011.1 1008.6 0.0
21/05:30am 16.8 13.1 4.5 44 6.0 NE 13 15 7 8 1011.0 1008.5 0.0
21/05:00am 17.7 14.0 4.6 42 6.5 ENE 13 19 7 10 1011.0 1008.5 0.0
21/04:30am 17.9 15.0 6.4 47 5.9 NE 11 17 6 9 1011.6 1009.2 0.0
21/04:00am 19.7 16.3 5.7 40 7.2 SW 13 15 7 8 1011.5 1009.1 0.0
21/03:30am 18.6 16.2 7.1 47 6.0 W 9 17 5 9 1011.8 1009.3 0.0
21/03:00am 19.4 14.6 7.2 45 6.4 NNW 22 41 12 22 1011.3 1008.9 0.0
21/02:30am 19.0 18.2 6.5 44 6.5 CALM 0 0 0 0 1010.8 1008.3 0.0
21/02:00am 19.1 18.1 5.6 41 6.9 CALM 0 0 0 0 1011.0 1008.5 0.0
21/01:30am 18.1 17.5 7.2 49 5.7 CALM 0 0 0 0 1011.3 1008.9 0.0
21/01:00am 17.5 15.3 6.4 48 5.7 NE 7 9 4 5 1011.6 1009.2 0.0
21/12:30am 17.2 14.7 6.4 49 5.5 NE 9 11 5 6 1011.8 1009.3 0.0
21/12:00am 17.6 15.1 6.5 48 5.7 NE 9 11 5 6 1012.1 1009.6 0.0
 
Date/Time
EDT
Temp
°C
App
Temp
°C
Dew
Point
Rel
Hum
%
Delta-T
°C
Wind Press
QNH
hPa
Press
MSL
hPa
Rain
since 9 am
mm
Dir
 
Spd
km/h
Gust
km/h
Spd
kts
Gust
kts
20/11:30pm 17.3 14.7 6.2 48 5.7 NE 9 11 5 6 1012.4 1009.9 0.0
20/11:00pm 18.8 15.7 5.6 42 6.7 NE 11 13 6 7 1012.7 1010.3 0.0
20/10:30pm 20.4 17.5 4.8 36 7.9 ENE 9 9 5 5 1012.8 1010.4 0.0
20/10:00pm 21.0 18.5 5.0 35 8.2 NE 7 9 4 5 1013.2 1010.7 0.0
20/09:30pm 20.3 17.4 4.8 36 7.8 NNE 9 11 5 6 1013.0 1010.6 0.0
20/09:00pm 22.6 19.7 4.6 31 9.2 NW 9 11 5 6 1012.7 1010.3 0.0
20/08:30pm 22.4 18.7 4.5 31 9.1 NW 13 15 7 8 1012.6 1010.2 0.0
20/08:00pm 23.6 19.4 4.0 28 10.0 NNW 15 20 8 11 1012.3 1009.8 0.0
20/07:30pm 25.5 21.3 4.0 25 11.1 NNW 15 19 8 10 1012.0 1009.5 0.0
20/07:00pm 28.0 23.6 5.0 23 12.3 NW 17 24 9 13 1011.8 1009.3 0.0
20/06:30pm 27.6 22.7 4.0 22 12.3 NW 19 26 10 14 1011.4 1009.0 0.0
20/06:00pm 28.4 21.5 2.6 19 13.2 NW 28 37 15 20 1011.3 1008.9 0.0
20/05:30pm 29.0 23.5 3.8 20 13.2 WNW 22 28 12 15 1011.3 1008.9 0.0
20/05:00pm 29.2 23.7 3.9 20 13.3 NW 22 30 12 16 1011.4 1009.0 0.0
20/04:30pm 29.8 24.1 2.9 18 14.0 NNW 22 33 12 18 1011.6 1009.2 0.0
20/04:00pm 30.4 25.5 4.2 19 14.0 NNW 19 37 10 20 1012.0 1009.5 0.0
20/03:30pm 30.7 27.3 7.8 24 13.0 NNW 15 32 8 17 1012.4 1009.9 0.0
20/03:00pm 30.4 25.6 5.6 21 13.5 W 20 28 11 15 1012.8 1010.4 0.0
20/02:30pm 30.2 27.8 6.8 23 13.0 NW 9 17 5 9 1013.4 1010.9 0.0
20/02:00pm 30.3 24.8 4.1 19 13.9 NNW 22 30 12 16 1013.8 1011.4 0.0
20/01:30pm 30.1 25.4 6.1 22 13.2 WNW 20 26 11 14 1014.3 1011.9 0.0
20/01:00pm 29.1 25.6 8.7 28 11.6 NNW 17 32 9 17 1014.9 1012.5 0.0
20/12:30pm 28.7 24.5 8.4 28 11.5 NW 20 32 11 17 1015.6 1013.2 0.0
20/12:00pm 28.1 23.6 6.2 25 11.9 NW 19 30 10 16 1015.8 1013.4 0.0
20/11:30am 26.6 24.1 12.3 41 8.5 N 17 28 9 15 1016.3 1013.9 0.0
20/11:00am 25.9 23.7 13.4 46 7.6 NNW 17 26 9 14 1016.8 1014.4 0.0
20/10:30am 25.0 22.3 14.5 52 6.4 NNW 22 35 12 19 1017.3 1015.0 0.0
20/10:00am 21.9 19.8 13.5 59 5.0 N 17 24 9 13 1017.5 1015.1 0.0
20/09:30am 20.2 19.6 13.4 65 4.0 N 9 15 5 8 1018.0 1015.6 0.0
20/09:00am 18.1 18.3 13.0 72 3.0 NNW 4 7 2 4 1018.1 1015.7 0.0
20/08:30am 17.0 17.9 12.9 77 2.4 CALM 0 0 0 0 1018.3 1015.9 0.0

Other Formats:

Comma delimited format used in spreadsheet applications
http://www.bom.gov.au/fwo/IDN60801/IDN60801.94729.axf

JavaScript Object Notation format (JSON) in row-major order
http://www.bom.gov.au/fwo/IDN60801/IDN60801.94729.json